sensor_id;sensor_type;location;lat;lon;timestamp;P1;durP1;ratioP1;P2;durP2;ratioP2
78197;SDS011;67472;51.554;7.812;2023-02-25T00:01:15;18.77;;;3.38;;
78197;SDS011;67472;51.554;7.812;2023-02-25T00:03:59;16.27;;;3.97;;
78197;SDS011;67472;51.554;7.812;2023-02-25T00:06:44;21.90;;;3.40;;
78197;SDS011;67472;51.554;7.812;2023-02-25T00:09:30;10.85;;;3.45;;
78197;SDS011;67472;51.554;7.812;2023-02-25T00:12:14;18.27;;;4.32;;
78197;SDS011;67472;51.554;7.812;2023-02-25T00:14:59;12.52;;;3.03;;
78197;SDS011;67472;51.554;7.812;2023-02-25T00:17:43;19.25;;;3.28;;
78197;SDS011;67472;51.554;7.812;2023-02-25T00:20:27;21.48;;;4.18;;
78197;SDS011;67472;51.554;7.812;2023-02-25T00:23:12;23.35;;;3.95;;
78197;SDS011;67472;51.554;7.812;2023-02-25T00:26:01;12.25;;;3.15;;
78197;SDS011;67472;51.554;7.812;2023-02-25T00:28:47;16.50;;;3.25;;
78197;SDS011;67472;51.554;7.812;2023-02-25T00:31:31;20.30;;;4.40;;
78197;SDS011;67472;51.554;7.812;2023-02-25T00:34:16;17.90;;;3.40;;
78197;SDS011;67472;51.554;7.812;2023-02-25T00:37:00;17.45;;;4.10;;
78197;SDS011;67472;51.554;7.812;2023-02-25T00:39:45;13.82;;;3.40;;
78197;SDS011;67472;51.554;7.812;2023-02-25T00:42:29;23.75;;;4.43;;
78197;SDS011;67472;51.554;7.812;2023-02-25T00:45:15;20.58;;;4.15;;
78197;SDS011;67472;51.554;7.812;2023-02-25T00:48:00;16.17;;;3.25;;
78197;SDS011;67472;51.554;7.812;2023-02-25T00:50:45;15.95;;;2.95;;
78197;SDS011;67472;51.554;7.812;2023-02-25T00:53:29;8.85;;;3.03;;
78197;SDS011;67472;51.554;7.812;2023-02-25T00:56:14;8.88;;;2.90;;
78197;SDS011;67472;51.554;7.812;2023-02-25T00:59:00;11.25;;;2.67;;
78197;SDS011;67472;51.554;7.812;2023-02-25T01:01:44;13.95;;;3.00;;
78197;SDS011;67472;51.554;7.812;2023-02-25T01:04:28;19.42;;;3.42;;
78197;SDS011;67472;51.554;7.812;2023-02-25T01:07:13;11.90;;;2.72;;
78197;SDS011;67472;51.554;7.812;2023-02-25T01:09:57;20.30;;;3.72;;
78197;SDS011;67472;51.554;7.812;2023-02-25T01:12:42;15.05;;;3.60;;
78197;SDS011;67472;51.554;7.812;2023-02-25T01:15:28;14.43;;;2.53;;
78197;SDS011;67472;51.554;7.812;2023-02-25T01:18:13;17.35;;;4.18;;
78197;SDS011;67472;51.554;7.812;2023-02-25T01:20:58;16.13;;;4.25;;
78197;SDS011;67472;51.554;7.812;2023-02-25T01:23:44;22.92;;;3.60;;
78197;SDS011;67472;51.554;7.812;2023-02-25T01:26:31;12.38;;;2.47;;
78197;SDS011;67472;51.554;7.812;2023-02-25T01:29:21;14.35;;;4.50;;
78197;SDS011;67472;51.554;7.812;2023-02-25T01:32:10;15.65;;;3.08;;
78197;SDS011;67472;51.554;7.812;2023-02-25T01:34:56;17.15;;;3.97;;
78197;SDS011;67472;51.554;7.812;2023-02-25T01:37:41;14.20;;;2.85;;
78197;SDS011;67472;51.554;7.812;2023-02-25T01:40:26;13.85;;;2.63;;
78197;SDS011;67472;51.554;7.812;2023-02-25T01:43:14;12.02;;;3.08;;
78197;SDS011;67472;51.554;7.812;2023-02-25T01:45:58;16.27;;;3.35;;
78197;SDS011;67472;51.554;7.812;2023-02-25T01:48:44;14.48;;;3.38;;
78197;SDS011;67472;51.554;7.812;2023-02-25T01:51:28;15.13;;;3.55;;
78197;SDS011;67472;51.554;7.812;2023-02-25T01:54:14;14.60;;;3.10;;
78197;SDS011;67472;51.554;7.812;2023-02-25T01:57:00;15.98;;;3.25;;
78197;SDS011;67472;51.554;7.812;2023-02-25T01:59:49;17.02;;;3.63;;
78197;SDS011;67472;51.554;7.812;2023-02-25T02:02:36;19.17;;;3.63;;
78197;SDS011;67472;51.554;7.812;2023-02-25T02:05:23;20.95;;;3.17;;
78197;SDS011;67472;51.554;7.812;2023-02-25T02:08:14;18.00;;;3.38;;
78197;SDS011;67472;51.554;7.812;2023-02-25T02:10:59;13.43;;;3.33;;
78197;SDS011;67472;51.554;7.812;2023-02-25T02:13:54;17.98;;;3.08;;
78197;SDS011;67472;51.554;7.812;2023-02-25T02:19:46;15.27;;;2.95;;
78197;SDS011;67472;51.554;7.812;2023-02-25T02:22:37;8.60;;;2.70;;
78197;SDS011;67472;51.554;7.812;2023-02-25T02:31:46;20.00;;;3.72;;
78197;SDS011;67472;51.554;7.812;2023-02-25T02:34:47;12.90;;;4.55;;
78197;SDS011;67472;51.554;7.812;2023-02-25T02:43:47;15.65;;;3.72;;
78197;SDS011;67472;51.554;7.812;2023-02-25T02:46:42;18.90;;;3.03;;
78197;SDS011;67472;51.554;7.812;2023-02-25T02:52:58;17.60;;;4.63;;
78197;SDS011;67472;51.554;7.812;2023-02-25T02:55:47;22.67;;;6.38;;
78197;SDS011;67472;51.554;7.812;2023-02-25T02:58:46;17.38;;;3.83;;
78197;SDS011;67472;51.554;7.812;2023-02-25T03:01:50;21.10;;;4.00;;
78197;SDS011;67472;51.554;7.812;2023-02-25T03:04:37;19.63;;;3.85;;
78197;SDS011;67472;51.554;7.812;2023-02-25T03:07:25;24.10;;;4.57;;
78197;SDS011;67472;51.554;7.812;2023-02-25T03:10:12;16.60;;;3.67;;
78197;SDS011;67472;51.554;7.812;2023-02-25T03:13:00;14.50;;;4.00;;
78197;SDS011;67472;51.554;7.812;2023-02-25T03:15:45;19.25;;;4.93;;
78197;SDS011;67472;51.554;7.812;2023-02-25T03:18:34;18.77;;;3.92;;
78197;SDS011;67472;51.554;7.812;2023-02-25T03:21:24;12.02;;;3.72;;
78197;SDS011;67472;51.554;7.812;2023-02-25T03:24:15;16.63;;;3.78;;
78197;SDS011;67472;51.554;7.812;2023-02-25T03:30:25;21.58;;;5.63;;
78197;SDS011;67472;51.554;7.812;2023-02-25T03:33:12;16.85;;;4.78;;
78197;SDS011;67472;51.554;7.812;2023-02-25T03:36:03;20.17;;;4.90;;
78197;SDS011;67472;51.554;7.812;2023-02-25T03:38:55;17.95;;;4.53;;
78197;SDS011;67472;51.554;7.812;2023-02-25T03:41:45;19.20;;;4.60;;
78197;SDS011;67472;51.554;7.812;2023-02-25T03:44:36;19.92;;;4.68;;
78197;SDS011;67472;51.554;7.812;2023-02-25T03:47:26;16.45;;;5.07;;
78197;SDS011;67472;51.554;7.812;2023-02-25T03:50:23;17.17;;;4.93;;
78197;SDS011;67472;51.554;7.812;2023-02-25T03:53:16;17.38;;;4.78;;
78197;SDS011;67472;51.554;7.812;2023-02-25T03:56:12;22.77;;;4.68;;
78197;SDS011;67472;51.554;7.812;2023-02-25T03:58:59;31.25;;;6.60;;
78197;SDS011;67472;51.554;7.812;2023-02-25T04:01:45;24.20;;;5.88;;
78197;SDS011;67472;51.554;7.812;2023-02-25T04:04:32;22.00;;;6.50;;
78197;SDS011;67472;51.554;7.812;2023-02-25T04:07:16;18.85;;;5.00;;
78197;SDS011;67472;51.554;7.812;2023-02-25T04:10:01;19.05;;;4.40;;
78197;SDS011;67472;51.554;7.812;2023-02-25T04:12:47;16.20;;;4.55;;
78197;SDS011;67472;51.554;7.812;2023-02-25T04:15:34;17.58;;;3.90;;
78197;SDS011;67472;51.554;7.812;2023-02-25T04:18:18;20.88;;;4.13;;
78197;SDS011;67472;51.554;7.812;2023-02-25T04:21:04;16.95;;;3.38;;
78197;SDS011;67472;51.554;7.812;2023-02-25T04:23:52;20.45;;;4.13;;
78197;SDS011;67472;51.554;7.812;2023-02-25T04:26:36;16.85;;;4.35;;
78197;SDS011;67472;51.554;7.812;2023-02-25T04:29:20;13.10;;;3.65;;
78197;SDS011;67472;51.554;7.812;2023-02-25T04:32:05;15.48;;;3.17;;
78197;SDS011;67472;51.554;7.812;2023-02-25T04:34:50;18.17;;;3.60;;
78197;SDS011;67472;51.554;7.812;2023-02-25T04:37:34;13.23;;;3.47;;
78197;SDS011;67472;51.554;7.812;2023-02-25T04:40:21;17.65;;;4.05;;
78197;SDS011;67472;51.554;7.812;2023-02-25T04:43:07;20.70;;;3.75;;
78197;SDS011;67472;51.554;7.812;2023-02-25T04:45:53;17.65;;;3.92;;
78197;SDS011;67472;51.554;7.812;2023-02-25T04:48:38;16.33;;;4.47;;
78197;SDS011;67472;51.554;7.812;2023-02-25T04:51:23;22.15;;;4.05;;
78197;SDS011;67472;51.554;7.812;2023-02-25T04:54:07;16.30;;;3.47;;
78197;SDS011;67472;51.554;7.812;2023-02-25T04:56:52;24.33;;;4.72;;
78197;SDS011;67472;51.554;7.812;2023-02-25T04:59:36;21.60;;;3.42;;
78197;SDS011;67472;51.554;7.812;2023-02-25T05:02:21;20.58;;;3.90;;
78197;SDS011;67472;51.554;7.812;2023-02-25T05:05:06;24.05;;;4.03;;
78197;SDS011;67472;51.554;7.812;2023-02-25T05:07:50;18.13;;;3.80;;
78197;SDS011;67472;51.554;7.812;2023-02-25T05:10:35;12.10;;;3.38;;
78197;SDS011;67472;51.554;7.812;2023-02-25T05:13:19;17.95;;;4.10;;
78197;SDS011;67472;51.554;7.812;2023-02-25T05:16:08;17.95;;;3.72;;
78197;SDS011;67472;51.554;7.812;2023-02-25T05:18:55;19.60;;;4.38;;
78197;SDS011;67472;51.554;7.812;2023-02-25T05:21:39;16.00;;;3.63;;
78197;SDS011;67472;51.554;7.812;2023-02-25T05:24:24;18.92;;;4.13;;
78197;SDS011;67472;51.554;7.812;2023-02-25T05:27:08;25.48;;;5.72;;
78197;SDS011;67472;51.554;7.812;2023-02-25T05:29:53;15.65;;;3.60;;
78197;SDS011;67472;51.554;7.812;2023-02-25T05:32:37;17.60;;;3.85;;
78197;SDS011;67472;51.554;7.812;2023-02-25T05:35:22;21.15;;;3.80;;
78197;SDS011;67472;51.554;7.812;2023-02-25T05:38:06;19.63;;;4.60;;
78197;SDS011;67472;51.554;7.812;2023-02-25T05:40:51;21.00;;;4.47;;
78197;SDS011;67472;51.554;7.812;2023-02-25T05:43:36;20.48;;;4.38;;
78197;SDS011;67472;51.554;7.812;2023-02-25T05:46:21;19.27;;;4.00;;
78197;SDS011;67472;51.554;7.812;2023-02-25T05:49:05;24.95;;;4.78;;
78197;SDS011;67472;51.554;7.812;2023-02-25T05:51:49;20.35;;;4.55;;
78197;SDS011;67472;51.554;7.812;2023-02-25T05:54:34;23.02;;;4.25;;
78197;SDS011;67472;51.554;7.812;2023-02-25T05:57:18;23.40;;;4.75;;
78197;SDS011;67472;51.554;7.812;2023-02-25T06:00:04;22.88;;;3.83;;
78197;SDS011;67472;51.554;7.812;2023-02-25T06:02:56;19.55;;;3.83;;
78197;SDS011;67472;51.554;7.812;2023-02-25T06:05:41;22.58;;;4.93;;
78197;SDS011;67472;51.554;7.812;2023-02-25T06:08:26;23.15;;;4.15;;
78197;SDS011;67472;51.554;7.812;2023-02-25T06:11:11;12.88;;;3.85;;
78197;SDS011;67472;51.554;7.812;2023-02-25T06:14:03;18.30;;;3.90;;
78197;SDS011;67472;51.554;7.812;2023-02-25T06:16:48;21.40;;;4.45;;
78197;SDS011;67472;51.554;7.812;2023-02-25T06:19:33;15.48;;;3.88;;
78197;SDS011;67472;51.554;7.812;2023-02-25T06:22:18;23.55;;;4.07;;
78197;SDS011;67472;51.554;7.812;2023-02-25T06:25:03;14.00;;;4.05;;
78197;SDS011;67472;51.554;7.812;2023-02-25T06:27:48;18.55;;;4.00;;
78197;SDS011;67472;51.554;7.812;2023-02-25T06:30:33;17.52;;;5.00;;
78197;SDS011;67472;51.554;7.812;2023-02-25T06:33:17;22.92;;;5.70;;
78197;SDS011;67472;51.554;7.812;2023-02-25T06:36:02;32.67;;;5.55;;
78197;SDS011;67472;51.554;7.812;2023-02-25T06:38:49;16.70;;;4.07;;
78197;SDS011;67472;51.554;7.812;2023-02-25T06:41:33;23.02;;;6.90;;
78197;SDS011;67472;51.554;7.812;2023-02-25T06:44:18;17.00;;;4.88;;
78197;SDS011;67472;51.554;7.812;2023-02-25T06:47:02;26.13;;;4.78;;
78197;SDS011;67472;51.554;7.812;2023-02-25T06:49:46;19.02;;;4.50;;
78197;SDS011;67472;51.554;7.812;2023-02-25T06:52:31;15.23;;;4.28;;
78197;SDS011;67472;51.554;7.812;2023-02-25T06:55:16;15.07;;;3.65;;
78197;SDS011;67472;51.554;7.812;2023-02-25T06:58:00;21.17;;;4.07;;
78197;SDS011;67472;51.554;7.812;2023-02-25T07:00:45;23.65;;;4.15;;
78197;SDS011;67472;51.554;7.812;2023-02-25T07:03:29;26.10;;;3.88;;
78197;SDS011;67472;51.554;7.812;2023-02-25T07:06:14;24.27;;;3.90;;
78197;SDS011;67472;51.554;7.812;2023-02-25T07:08:58;15.48;;;3.15;;
78197;SDS011;67472;51.554;7.812;2023-02-25T07:11:43;18.27;;;4.10;;
78197;SDS011;67472;51.554;7.812;2023-02-25T07:14:27;20.27;;;3.75;;
78197;SDS011;67472;51.554;7.812;2023-02-25T07:17:12;12.85;;;3.17;;
78197;SDS011;67472;51.554;7.812;2023-02-25T07:19:57;16.60;;;3.08;;
78197;SDS011;67472;51.554;7.812;2023-02-25T07:22:41;18.40;;;3.63;;
78197;SDS011;67472;51.554;7.812;2023-02-25T07:25:25;20.63;;;5.25;;
78197;SDS011;67472;51.554;7.812;2023-02-25T07:28:10;20.00;;;3.78;;
78197;SDS011;67472;51.554;7.812;2023-02-25T07:30:55;19.60;;;3.83;;
78197;SDS011;67472;51.554;7.812;2023-02-25T07:33:39;21.95;;;4.93;;
78197;SDS011;67472;51.554;7.812;2023-02-25T07:36:24;17.38;;;4.50;;
78197;SDS011;67472;51.554;7.812;2023-02-25T07:39:10;16.27;;;5.68;;
78197;SDS011;67472;51.554;7.812;2023-02-25T07:41:55;17.63;;;3.60;;
78197;SDS011;67472;51.554;7.812;2023-02-25T07:44:39;19.15;;;4.97;;
78197;SDS011;67472;51.554;7.812;2023-02-25T07:47:24;18.15;;;3.95;;
78197;SDS011;67472;51.554;7.812;2023-02-25T07:50:09;9.90;;;1.52;;
78197;SDS011;67472;51.554;7.812;2023-02-25T07:52:54;12.45;;;1.83;;
78197;SDS011;67472;51.554;7.812;2023-02-25T07:55:41;7.25;;;2.42;;
78197;SDS011;67472;51.554;7.812;2023-02-25T07:58:27;8.85;;;2.28;;
78197;SDS011;67472;51.554;7.812;2023-02-25T08:04:07;2.97;;;1.50;;
78197;SDS011;67472;51.554;7.812;2023-02-25T08:06:53;3.78;;;1.65;;
78197;SDS011;67472;51.554;7.812;2023-02-25T08:09:38;7.32;;;1.63;;
78197;SDS011;67472;51.554;7.812;2023-02-25T08:12:24;6.72;;;1.80;;
78197;SDS011;67472;51.554;7.812;2023-02-25T08:15:10;10.27;;;2.30;;
78197;SDS011;67472;51.554;7.812;2023-02-25T08:17:54;3.97;;;2.08;;
78197;SDS011;67472;51.554;7.812;2023-02-25T08:20:43;6.50;;;2.50;;
78197;SDS011;67472;51.554;7.812;2023-02-25T08:23:30;3.20;;;1.27;;
78197;SDS011;67472;51.554;7.812;2023-02-25T08:26:14;4.95;;;1.95;;
78197;SDS011;67472;51.554;7.812;2023-02-25T08:29:00;4.25;;;1.98;;
78197;SDS011;67472;51.554;7.812;2023-02-25T08:31:44;6.50;;;2.03;;
78197;SDS011;67472;51.554;7.812;2023-02-25T08:34:29;3.75;;;2.15;;
78197;SDS011;67472;51.554;7.812;2023-02-25T08:37:14;9.30;;;2.17;;
78197;SDS011;67472;51.554;7.812;2023-02-25T08:39:58;4.75;;;2.22;;
78197;SDS011;67472;51.554;7.812;2023-02-25T08:42:42;6.60;;;1.92;;
78197;SDS011;67472;51.554;7.812;2023-02-25T08:45:27;10.02;;;2.60;;
78197;SDS011;67472;51.554;7.812;2023-02-25T08:48:11;6.43;;;2.38;;
78197;SDS011;67472;51.554;7.812;2023-02-25T08:51:00;8.80;;;2.67;;
78197;SDS011;67472;51.554;7.812;2023-02-25T08:53:46;8.70;;;2.15;;
78197;SDS011;67472;51.554;7.812;2023-02-25T08:56:30;7.05;;;2.15;;
78197;SDS011;67472;51.554;7.812;2023-02-25T08:59:15;8.02;;;2.22;;
78197;SDS011;67472;51.554;7.812;2023-02-25T09:02:01;8.10;;;2.40;;
78197;SDS011;67472;51.554;7.812;2023-02-25T09:04:46;7.50;;;3.53;;
78197;SDS011;67472;51.554;7.812;2023-02-25T09:07:31;11.35;;;2.83;;
78197;SDS011;67472;51.554;7.812;2023-02-25T09:10:15;8.88;;;2.67;;
78197;SDS011;67472;51.554;7.812;2023-02-25T09:13:00;8.02;;;2.58;;
78197;SDS011;67472;51.554;7.812;2023-02-25T09:15:45;11.75;;;2.67;;
78197;SDS011;67472;51.554;7.812;2023-02-25T09:18:29;11.48;;;3.22;;
78197;SDS011;67472;51.554;7.812;2023-02-25T09:21:15;10.07;;;3.05;;
78197;SDS011;67472;51.554;7.812;2023-02-25T09:23:59;11.98;;;3.95;;
78197;SDS011;67472;51.554;7.812;2023-02-25T09:26:44;11.45;;;2.63;;
78197;SDS011;67472;51.554;7.812;2023-02-25T09:29:29;14.15;;;3.35;;
78197;SDS011;67472;51.554;7.812;2023-02-25T09:32:18;13.73;;;3.65;;
78197;SDS011;67472;51.554;7.812;2023-02-25T09:35:03;15.02;;;3.17;;
78197;SDS011;67472;51.554;7.812;2023-02-25T09:37:48;9.55;;;2.55;;
78197;SDS011;67472;51.554;7.812;2023-02-25T09:40:33;11.13;;;2.72;;
78197;SDS011;67472;51.554;7.812;2023-02-25T09:43:19;10.93;;;2.72;;
78197;SDS011;67472;51.554;7.812;2023-02-25T09:46:11;12.52;;;3.00;;
78197;SDS011;67472;51.554;7.812;2023-02-25T09:49:01;10.45;;;2.80;;
78197;SDS011;67472;51.554;7.812;2023-02-25T09:51:54;9.98;;;2.35;;
78197;SDS011;67472;51.554;7.812;2023-02-25T09:54:43;13.95;;;2.45;;
78197;SDS011;67472;51.554;7.812;2023-02-25T09:57:30;14.55;;;2.75;;
78197;SDS011;67472;51.554;7.812;2023-02-25T10:00:20;10.70;;;2.70;;
78197;SDS011;67472;51.554;7.812;2023-02-25T10:03:10;10.25;;;2.13;;
78197;SDS011;67472;51.554;7.812;2023-02-25T10:06:08;11.20;;;3.00;;
78197;SDS011;67472;51.554;7.812;2023-02-25T10:09:12;8.52;;;2.13;;
78197;SDS011;67472;51.554;7.812;2023-02-25T10:12:33;7.90;;;2.25;;
78197;SDS011;67472;51.554;7.812;2023-02-25T10:15:28;11.25;;;2.20;;
78197;SDS011;67472;51.554;7.812;2023-02-25T10:18:23;5.70;;;1.67;;
78197;SDS011;67472;51.554;7.812;2023-02-25T10:30:14;8.00;;;1.60;;
78197;SDS011;67472;51.554;7.812;2023-02-25T10:33:03;5.85;;;1.95;;
78197;SDS011;67472;51.554;7.812;2023-02-25T10:36:02;5.40;;;2.58;;
78197;SDS011;67472;51.554;7.812;2023-02-25T10:38:55;5.13;;;1.70;;
78197;SDS011;67472;51.554;7.812;2023-02-25T10:41:39;8.85;;;2.08;;
78197;SDS011;67472;51.554;7.812;2023-02-25T10:44:24;9.52;;;2.00;;
78197;SDS011;67472;51.554;7.812;2023-02-25T10:47:08;7.50;;;2.58;;
78197;SDS011;67472;51.554;7.812;2023-02-25T10:53:14;5.10;;;1.52;;
78197;SDS011;67472;51.554;7.812;2023-02-25T10:56:00;7.10;;;1.90;;
78197;SDS011;67472;51.554;7.812;2023-02-25T10:59:06;6.20;;;1.70;;
78197;SDS011;67472;51.554;7.812;2023-02-25T11:02:19;5.82;;;1.90;;
78197;SDS011;67472;51.554;7.812;2023-02-25T11:05:27;5.82;;;1.63;;
78197;SDS011;67472;51.554;7.812;2023-02-25T11:08:29;10.15;;;2.55;;
78197;SDS011;67472;51.554;7.812;2023-02-25T11:11:22;6.72;;;1.58;;
78197;SDS011;67472;51.554;7.812;2023-02-25T11:14:13;9.75;;;1.90;;
78197;SDS011;67472;51.554;7.812;2023-02-25T11:17:03;5.70;;;1.95;;
78197;SDS011;67472;51.554;7.812;2023-02-25T11:19:51;7.07;;;2.40;;
78197;SDS011;67472;51.554;7.812;2023-02-25T11:22:42;4.22;;;2.42;;
78197;SDS011;67472;51.554;7.812;2023-02-25T11:25:36;6.18;;;4.25;;
78197;SDS011;67472;51.554;7.812;2023-02-25T11:28:27;5.72;;;2.63;;
78197;SDS011;67472;51.554;7.812;2023-02-25T11:31:18;6.90;;;2.10;;
78197;SDS011;67472;51.554;7.812;2023-02-25T11:34:15;4.07;;;1.50;;
78197;SDS011;67472;51.554;7.812;2023-02-25T11:43:13;5.68;;;1.45;;
78197;SDS011;67472;51.554;7.812;2023-02-25T11:46:02;7.07;;;1.85;;
78197;SDS011;67472;51.554;7.812;2023-02-25T11:48:52;6.95;;;1.50;;
78197;SDS011;67472;51.554;7.812;2023-02-25T11:51:51;5.80;;;1.35;;
78197;SDS011;67472;51.554;7.812;2023-02-25T11:54:58;8.35;;;1.73;;
78197;SDS011;67472;51.554;7.812;2023-02-25T12:00:49;4.55;;;1.70;;
78197;SDS011;67472;51.554;7.812;2023-02-25T12:25:33;7.13;;;1.27;;
78197;SDS011;67472;51.554;7.812;2023-02-25T12:28:42;5.30;;;1.42;;
78197;SDS011;67472;51.554;7.812;2023-02-25T12:31:46;7.95;;;1.60;;
78197;SDS011;67472;51.554;7.812;2023-02-25T12:37:28;7.15;;;1.83;;
78197;SDS011;67472;51.554;7.812;2023-02-25T12:43:46;5.40;;;1.95;;
78197;SDS011;67472;51.554;7.812;2023-02-25T12:58:59;5.85;;;1.02;;
78197;SDS011;67472;51.554;7.812;2023-02-25T13:08:09;2.42;;;1.00;;
78197;SDS011;67472;51.554;7.812;2023-02-25T13:11:20;5.32;;;1.35;;
78197;SDS011;67472;51.554;7.812;2023-02-25T13:26:09;6.22;;;1.10;;
78197;SDS011;67472;51.554;7.812;2023-02-25T13:29:36;4.45;;;0.90;;
78197;SDS011;67472;51.554;7.812;2023-02-25T13:32:40;3.30;;;1.10;;
78197;SDS011;67472;51.554;7.812;2023-02-25T13:51:36;3.53;;;1.00;;
78197;SDS011;67472;51.554;7.812;2023-02-25T14:03:50;1.25;;;0.88;;
78197;SDS011;67472;51.554;7.812;2023-02-25T14:06:41;2.92;;;0.90;;
78197;SDS011;67472;51.554;7.812;2023-02-25T14:15:58;3.70;;;1.00;;
78197;SDS011;67472;51.554;7.812;2023-02-25T14:28:27;1.65;;;0.80;;
78197;SDS011;67472;51.554;7.812;2023-02-25T14:37:47;1.55;;;1.08;;
78197;SDS011;67472;51.554;7.812;2023-02-25T14:43:43;2.97;;;0.73;;
78197;SDS011;67472;51.554;7.812;2023-02-25T14:46:32;2.40;;;1.00;;
78197;SDS011;67472;51.554;7.812;2023-02-25T14:49:30;2.20;;;0.93;;
78197;SDS011;67472;51.554;7.812;2023-02-25T14:55:39;2.63;;;1.20;;
78197;SDS011;67472;51.554;7.812;2023-02-25T15:10:52;2.63;;;0.98;;
78197;SDS011;67472;51.554;7.812;2023-02-25T15:19:41;2.83;;;1.20;;
78197;SDS011;67472;51.554;7.812;2023-02-25T15:34:58;4.20;;;1.50;;
78197;SDS011;67472;51.554;7.812;2023-02-25T15:40:48;3.63;;;1.27;;
78197;SDS011;67472;51.554;7.812;2023-02-25T15:43:39;1.77;;;1.00;;
78197;SDS011;67472;51.554;7.812;2023-02-25T15:49:26;4.10;;;1.20;;
78197;SDS011;67472;51.554;7.812;2023-02-25T15:53:01;2.30;;;0.90;;
78197;SDS011;67472;51.554;7.812;2023-02-25T15:55:41;4.88;;;0.90;;
78197;SDS011;67472;51.554;7.812;2023-02-25T16:01:36;1.48;;;0.90;;
78197;SDS011;67472;51.554;7.812;2023-02-25T16:04:43;2.95;;;1.13;;
78197;SDS011;67472;51.554;7.812;2023-02-25T16:07:30;3.55;;;1.30;;
78197;SDS011;67472;51.554;7.812;2023-02-25T16:10:23;4.93;;;1.20;;
78197;SDS011;67472;51.554;7.812;2023-02-25T16:13:15;3.88;;;0.98;;
78197;SDS011;67472;51.554;7.812;2023-02-25T16:16:07;4.47;;;1.30;;
78197;SDS011;67472;51.554;7.812;2023-02-25T16:18:54;1.17;;;0.85;;
78197;SDS011;67472;51.554;7.812;2023-02-25T16:21:43;2.15;;;1.38;;
78197;SDS011;67472;51.554;7.812;2023-02-25T16:24:31;3.92;;;2.03;;
78197;SDS011;67472;51.554;7.812;2023-02-25T16:27:59;2.72;;;0.95;;
78197;SDS011;67472;51.554;7.812;2023-02-25T16:33:25;4.13;;;1.48;;
78197;SDS011;67472;51.554;7.812;2023-02-25T16:36:25;3.72;;;2.47;;
78197;SDS011;67472;51.554;7.812;2023-02-25T16:39:21;4.70;;;1.45;;
78197;SDS011;67472;51.554;7.812;2023-02-25T16:42:10;2.92;;;1.88;;
78197;SDS011;67472;51.554;7.812;2023-02-25T16:44:57;2.50;;;1.50;;
78197;SDS011;67472;51.554;7.812;2023-02-25T16:47:44;4.53;;;1.70;;
78197;SDS011;67472;51.554;7.812;2023-02-25T16:50:38;4.53;;;1.83;;
78197;SDS011;67472;51.554;7.812;2023-02-25T16:53:24;4.22;;;1.40;;
78197;SDS011;67472;51.554;7.812;2023-02-25T16:56:14;5.82;;;1.85;;
78197;SDS011;67472;51.554;7.812;2023-02-25T16:59:14;4.50;;;1.50;;
78197;SDS011;67472;51.554;7.812;2023-02-25T17:02:02;3.08;;;1.40;;
78197;SDS011;67472;51.554;7.812;2023-02-25T17:05:04;4.55;;;1.35;;
78197;SDS011;67472;51.554;7.812;2023-02-25T17:08:05;4.40;;;1.25;;
78197;SDS011;67472;51.554;7.812;2023-02-25T17:11:00;5.53;;;1.58;;
78197;SDS011;67472;51.554;7.812;2023-02-25T17:13:49;5.28;;;1.40;;
78197;SDS011;67472;51.554;7.812;2023-02-25T17:16:36;8.18;;;1.65;;
78197;SDS011;67472;51.554;7.812;2023-02-25T17:19:24;5.40;;;1.60;;
78197;SDS011;67472;51.554;7.812;2023-02-25T17:22:09;7.82;;;1.90;;
78197;SDS011;67472;51.554;7.812;2023-02-25T17:24:54;5.82;;;2.10;;
78197;SDS011;67472;51.554;7.812;2023-02-25T17:27:40;8.23;;;1.90;;
78197;SDS011;67472;51.554;7.812;2023-02-25T17:36:10;6.45;;;1.70;;
78197;SDS011;67472;51.554;7.812;2023-02-25T17:39:02;5.22;;;1.60;;
78197;SDS011;67472;51.554;7.812;2023-02-25T17:41:49;7.20;;;2.75;;
78197;SDS011;67472;51.554;7.812;2023-02-25T17:47:31;5.53;;;1.75;;
78197;SDS011;67472;51.554;7.812;2023-02-25T17:50:22;4.10;;;1.42;;
78197;SDS011;67472;51.554;7.812;2023-02-25T17:53:18;6.13;;;1.48;;
78197;SDS011;67472;51.554;7.812;2023-02-25T17:56:28;4.03;;;1.40;;
78197;SDS011;67472;51.554;7.812;2023-02-25T18:02:01;5.05;;;1.88;;
78197;SDS011;67472;51.554;7.812;2023-02-25T18:04:47;3.75;;;1.73;;
78197;SDS011;67472;51.554;7.812;2023-02-25T18:07:36;7.75;;;1.95;;
78197;SDS011;67472;51.554;7.812;2023-02-25T18:10:42;3.90;;;1.65;;
78197;SDS011;67472;51.554;7.812;2023-02-25T18:13:35;4.00;;;1.55;;
78197;SDS011;67472;51.554;7.812;2023-02-25T18:19:23;8.20;;;1.88;;
78197;SDS011;67472;51.554;7.812;2023-02-25T18:28:15;3.75;;;1.48;;
78197;SDS011;67472;51.554;7.812;2023-02-25T18:31:01;3.22;;;1.80;;
78197;SDS011;67472;51.554;7.812;2023-02-25T18:33:46;9.27;;;1.90;;
78197;SDS011;67472;51.554;7.812;2023-02-25T18:36:31;3.17;;;1.52;;
78197;SDS011;67472;51.554;7.812;2023-02-25T18:39:16;4.97;;;1.85;;
78197;SDS011;67472;51.554;7.812;2023-02-25T18:42:03;7.63;;;2.20;;
78197;SDS011;67472;51.554;7.812;2023-02-25T18:44:48;4.38;;;1.48;;
78197;SDS011;67472;51.554;7.812;2023-02-25T18:47:32;4.25;;;1.58;;
78197;SDS011;67472;51.554;7.812;2023-02-25T18:50:17;4.18;;;1.63;;
78197;SDS011;67472;51.554;7.812;2023-02-25T18:53:02;4.05;;;1.83;;
78197;SDS011;67472;51.554;7.812;2023-02-25T18:55:46;5.90;;;2.97;;
78197;SDS011;67472;51.554;7.812;2023-02-25T18:58:31;8.43;;;3.38;;
78197;SDS011;67472;51.554;7.812;2023-02-25T19:01:18;5.72;;;2.10;;
78197;SDS011;67472;51.554;7.812;2023-02-25T19:04:06;8.77;;;3.85;;
78197;SDS011;67472;51.554;7.812;2023-02-25T19:06:55;4.63;;;1.60;;
78197;SDS011;67472;51.554;7.812;2023-02-25T19:09:40;6.50;;;2.13;;
78197;SDS011;67472;51.554;7.812;2023-02-25T19:12:25;5.68;;;1.80;;
78197;SDS011;67472;51.554;7.812;2023-02-25T19:15:12;7.18;;;2.00;;
78197;SDS011;67472;51.554;7.812;2023-02-25T19:17:58;5.78;;;1.75;;
78197;SDS011;67472;51.554;7.812;2023-02-25T19:20:43;6.03;;;3.10;;
78197;SDS011;67472;51.554;7.812;2023-02-25T19:23:27;4.80;;;2.28;;
78197;SDS011;67472;51.554;7.812;2023-02-25T19:26:12;6.75;;;2.50;;
78197;SDS011;67472;51.554;7.812;2023-02-25T19:28:58;7.47;;;2.53;;
78197;SDS011;67472;51.554;7.812;2023-02-25T19:31:43;4.07;;;1.80;;
78197;SDS011;67472;51.554;7.812;2023-02-25T19:34:28;4.28;;;2.30;;
78197;SDS011;67472;51.554;7.812;2023-02-25T19:37:13;4.88;;;2.45;;
78197;SDS011;67472;51.554;7.812;2023-02-25T19:39:58;2.65;;;2.03;;
78197;SDS011;67472;51.554;7.812;2023-02-25T19:42:43;5.35;;;2.40;;
78197;SDS011;67472;51.554;7.812;2023-02-25T19:45:29;8.07;;;2.47;;
78197;SDS011;67472;51.554;7.812;2023-02-25T19:48:13;5.43;;;3.28;;
78197;SDS011;67472;51.554;7.812;2023-02-25T19:51:03;7.50;;;2.75;;
78197;SDS011;67472;51.554;7.812;2023-02-25T19:53:49;8.90;;;4.88;;
78197;SDS011;67472;51.554;7.812;2023-02-25T19:56:33;9.68;;;5.07;;
78197;SDS011;67472;51.554;7.812;2023-02-25T19:59:17;8.63;;;5.35;;
78197;SDS011;67472;51.554;7.812;2023-02-25T20:02:02;11.35;;;6.78;;
78197;SDS011;67472;51.554;7.812;2023-02-25T20:04:46;10.50;;;6.35;;
78197;SDS011;67472;51.554;7.812;2023-02-25T20:07:31;8.38;;;6.03;;
78197;SDS011;67472;51.554;7.812;2023-02-25T20:10:16;10.00;;;7.40;;
78197;SDS011;67472;51.554;7.812;2023-02-25T20:13:01;9.90;;;6.07;;
78197;SDS011;67472;51.554;7.812;2023-02-25T20:15:45;13.90;;;8.52;;
78197;SDS011;67472;51.554;7.812;2023-02-25T20:18:30;19.75;;;9.27;;
78197;SDS011;67472;51.554;7.812;2023-02-25T20:21:15;11.10;;;6.53;;
78197;SDS011;67472;51.554;7.812;2023-02-25T20:23:59;10.77;;;6.13;;
78197;SDS011;67472;51.554;7.812;2023-02-25T20:26:44;7.68;;;2.80;;
78197;SDS011;67472;51.554;7.812;2023-02-25T20:29:28;8.55;;;3.20;;